Time;durP1;ratioP1;P1;durP2;ratioP2;P2;SDS_P1;SDS_P2;PMS_P1;PMS_P2;Temp;Humidity;BMP_temperature;BMP_pressure;BME280_temperature;BME280_humidity;BME280_pressure;Samples;Min_cycle;Max_cycle;Signal;HPM_P1;HPM_P2
2023/10/26 00:00:34;;;;;;;70.43;31.95;;;10.80;99.90;;;;;;5102487;28;20054;-72
2023/10/26 00:03:00;;;;;;;63.28;32.15;;;10.70;99.90;;;;;;5101736;28;20026;-75
2023/10/26 00:05:25;;;;;;;74.63;35.20;;;10.80;99.90;;;;;;5101115;28;20091;-73
2023/10/26 00:07:52;;;;;;;68.28;33.50;;;10.80;99.90;;;;;;5101814;28;20054;-72
2023/10/26 00:10:18;;;;;;;67.80;33.92;;;10.80;99.90;;;;;;5100795;28;20476;-72
2023/10/26 00:12:44;;;;;;;69.10;33.88;;;10.80;99.90;;;;;;5101578;28;20020;-74
2023/10/26 00:15:10;;;;;;;74.30;34.90;;;10.70;99.90;;;;;;5100406;28;20030;-74
2023/10/26 00:17:37;;;;;;;70.63;35.90;;;10.70;99.90;;;;;;5102098;28;20095;-74
2023/10/26 00:20:04;;;;;;;68.82;34.28;;;10.70;99.90;;;;;;5100049;28;20043;-74
2023/10/26 00:22:30;;;;;;;72.85;35.33;;;10.70;99.90;;;;;;5101446;28;20058;-75
2023/10/26 00:24:55;;;;;;;66.82;33.00;;;10.70;99.90;;;;;;5100260;28;20024;-74
2023/10/26 00:27:21;;;;;;;67.43;34.05;;;10.70;99.90;;;;;;5101731;28;20396;-74
2023/10/26 00:29:47;;;;;;;74.85;35.63;;;10.60;99.90;;;;;;5101644;28;20038;-74
2023/10/26 00:32:12;;;;;;;66.63;34.60;;;10.70;99.90;;;;;;5100684;28;20030;-75
2023/10/26 00:34:38;;;;;;;72.15;33.97;;;10.70;99.90;;;;;;5102387;28;20043;-75
2023/10/26 00:37:04;;;;;;;82.32;35.88;;;10.70;99.90;;;;;;5101517;28;20099;-75
2023/10/26 00:39:29;;;;;;;69.10;34.72;;;10.70;99.90;;;;;;5101674;28;20084;-74
2023/10/26 00:41:55;;;;;;;93.75;34.83;;;10.70;99.90;;;;;;5100920;28;20089;-74
2023/10/26 00:44:23;;;;;;;69.65;35.42;;;10.70;99.90;;;;;;5100684;28;20024;-73
2023/10/26 00:46:50;;;;;;;70.85;34.50;;;10.70;99.90;;;;;;5101138;28;20020;-73
2023/10/26 00:49:17;;;;;;;68.50;33.08;;;10.60;99.90;;;;;;5101289;28;20024;-74
2023/10/26 00:51:50;;;;;;;72.97;35.45;;;10.60;99.90;;;;;;5101155;28;20036;-74
2023/10/26 00:54:18;;;;;;;74.60;33.42;;;10.60;99.90;;;;;;5101583;28;20117;-74
2023/10/26 00:56:44;;;;;;;67.80;34.35;;;10.70;99.90;;;;;;5100754;28;20039;-74
2023/10/26 00:59:10;;;;;;;64.80;32.78;;;10.60;99.90;;;;;;5100669;28;20020;-74
2023/10/26 01:01:37;;;;;;;71.18;34.38;;;10.60;99.90;;;;;;5101322;28;20024;-74
2023/10/26 01:04:05;;;;;;;64.70;32.53;;;10.70;99.90;;;;;;5099138;28;20090;-74
2023/10/26 01:06:31;;;;;;;77.43;31.65;;;10.60;99.90;;;;;;5101222;28;20032;-73
2023/10/26 01:08:57;;;;;;;64.47;33.30;;;10.60;99.90;;;;;;5101156;28;20052;-73
2023/10/26 01:11:23;;;;;;;73.25;33.83;;;10.60;99.90;;;;;;5101192;28;20043;-75
2023/10/26 01:13:49;;;;;;;64.38;31.35;;;10.60;99.90;;;;;;5100545;28;20052;-72
2023/10/26 01:16:15;;;;;;;68.97;31.48;;;10.50;99.90;;;;;;5099694;28;20061;-74
2023/10/26 01:18:40;;;;;;;78.05;33.40;;;10.60;99.90;;;;;;5100421;28;20048;-74
2023/10/26 01:21:08;;;;;;;75.75;32.65;;;10.60;99.90;;;;;;5099263;28;20032;-73
2023/10/26 01:23:34;;;;;;;65.03;32.10;;;10.50;99.90;;;;;;5099518;28;20036;-72
2023/10/26 01:26:00;;;;;;;61.45;31.13;;;10.60;99.90;;;;;;5100947;28;20028;-74
2023/10/26 01:28:25;;;;;;;67.38;32.33;;;10.50;99.90;;;;;;5100779;28;20051;-74
2023/10/26 01:30:52;;;;;;;66.15;31.13;;;10.50;99.90;;;;;;5099045;28;20024;-71
2023/10/26 01:33:18;;;;;;;56.42;28.58;;;10.50;99.90;;;;;;5100607;28;20032;-74
2023/10/26 01:35:45;;;;;;;70.57;30.63;;;10.50;99.90;;;;;;5100428;28;20028;-73
2023/10/26 01:38:12;;;;;;;65.07;29.67;;;10.50;99.90;;;;;;5099380;28;20498;-73
2023/10/26 01:40:38;;;;;;;72.65;31.20;;;10.50;99.90;;;;;;5099235;28;20020;-74
2023/10/26 01:43:04;;;;;;;66.88;29.70;;;10.50;99.90;;;;;;5100239;28;20032;-73
2023/10/26 01:45:29;;;;;;;58.83;29.05;;;10.50;99.90;;;;;;5101638;28;20108;-73
2023/10/26 01:47:55;;;;;;;64.70;28.40;;;10.50;99.90;;;;;;5100157;28;20039;-73
2023/10/26 01:50:21;;;;;;;62.80;28.73;;;10.50;99.90;;;;;;5100639;28;20034;-73
2023/10/26 01:52:46;;;;;;;65.72;30.55;;;10.50;99.90;;;;;;5100738;28;20077;-74
2023/10/26 01:55:12;;;;;;;61.65;28.30;;;10.50;99.90;;;;;;5097751;28;20041;-73
2023/10/26 01:57:38;;;;;;;59.55;28.80;;;10.50;99.90;;;;;;5100346;28;20039;-72
2023/10/26 02:00:04;;;;;;;71.75;30.77;;;10.50;99.90;;;;;;5099238;28;20103;-74
2023/10/26 02:02:35;;;;;;;70.68;29.60;;;10.40;99.90;;;;;;5099760;28;20133;-76
2023/10/26 02:05:01;;;;;;;78.65;29.90;;;10.40;99.90;;;;;;5099017;28;20016;-73
2023/10/26 02:07:26;;;;;;;64.90;29.48;;;10.40;99.90;;;;;;5099151;28;20070;-73
2023/10/26 02:09:52;;;;;;;67.03;29.90;;;10.40;99.90;;;;;;5098538;28;20492;-74
2023/10/26 02:12:17;;;;;;;61.83;29.05;;;10.40;99.90;;;;;;5100618;28;20031;-74
2023/10/26 02:14:44;;;;;;;66.65;30.00;;;10.40;99.90;;;;;;5099228;28;20074;-73
2023/10/26 02:17:10;;;;;;;78.38;30.95;;;10.40;99.90;;;;;;5100147;28;20031;-74
2023/10/26 02:19:37;;;;;;;66.60;30.42;;;10.40;99.90;;;;;;5100318;28;20103;-74
2023/10/26 02:22:02;;;;;;;62.30;29.25;;;10.40;99.90;;;;;;5100033;28;20017;-74
2023/10/26 02:24:28;;;;;;;61.67;29.48;;;10.40;99.90;;;;;;5100262;28;20045;-73
2023/10/26 02:26:53;;;;;;;63.55;29.05;;;10.40;99.90;;;;;;5098862;28;20040;-73
2023/10/26 02:29:19;;;;;;;71.25;30.15;;;10.40;99.90;;;;;;5098963;28;20103;-72
2023/10/26 02:31:44;;;;;;;80.88;28.75;;;10.40;99.90;;;;;;5100037;28;20372;-73
2023/10/26 02:34:10;;;;;;;66.25;28.33;;;10.40;99.90;;;;;;5098921;28;20126;-72
2023/10/26 02:36:36;;;;;;;78.50;29.33;;;10.30;99.90;;;;;;5100141;28;20031;-73
2023/10/26 02:39:01;;;;;;;61.83;28.33;;;10.30;99.90;;;;;;5098633;28;20051;-73
2023/10/26 02:41:27;;;;;;;62.58;28.33;;;10.30;99.90;;;;;;5098977;28;20621;-71
2023/10/26 02:43:52;;;;;;;66.97;27.52;;;10.30;99.90;;;;;;5099655;28;20043;-72
2023/10/26 02:46:26;;;;;;;69.35;28.67;;;10.30;99.90;;;;;;5102443;28;20027;-77
2023/10/26 02:48:52;;;;;;;69.68;28.80;;;10.30;99.90;;;;;;5103730;28;20036;-72
2023/10/26 02:51:18;;;;;;;57.85;28.48;;;10.20;99.90;;;;;;5101528;28;20027;-74
2023/10/26 02:53:44;;;;;;;78.20;27.35;;;10.20;99.90;;;;;;5103800;28;20027;-72
2023/10/26 02:56:09;;;;;;;69.47;28.30;;;10.20;99.90;;;;;;5102670;28;20408;-74
2023/10/26 02:58:35;;;;;;;68.68;27.90;;;10.20;99.90;;;;;;5103566;28;20020;-73
2023/10/26 03:01:01;;;;;;;53.63;26.77;;;10.20;99.90;;;;;;5103800;28;20067;-74
2023/10/26 03:03:26;;;;;;;59.55;26.20;;;10.20;99.90;;;;;;5103848;28;20053;-74
2023/10/26 03:05:52;;;;;;;65.68;26.67;;;10.20;99.90;;;;;;5103126;28;20590;-74
2023/10/26 03:08:18;;;;;;;68.65;27.58;;;10.20;99.90;;;;;;5101088;28;20051;-73
2023/10/26 03:10:44;;;;;;;59.28;26.10;;;10.10;99.90;;;;;;5103281;28;20012;-76
2023/10/26 03:13:11;;;;;;;61.75;26.77;;;10.10;99.90;;;;;;5103014;28;20052;-75
2023/10/26 03:15:37;;;;;;;58.22;26.13;;;10.10;99.90;;;;;;5103410;28;20027;-74
2023/10/26 03:18:02;;;;;;;60.90;27.35;;;10.10;99.90;;;;;;5102684;28;20021;-76
2023/10/26 03:20:29;;;;;;;55.78;26.13;;;10.10;99.90;;;;;;5102509;28;20032;-74
2023/10/26 03:22:54;;;;;;;62.25;26.77;;;10.10;99.90;;;;;;5102465;28;20016;-75
2023/10/26 03:25:20;;;;;;;64.70;27.38;;;10.10;99.90;;;;;;5102901;28;20085;-74
2023/10/26 03:27:45;;;;;;;58.92;25.17;;;10.10;99.90;;;;;;5101334;28;20047;-75
2023/10/26 03:30:11;;;;;;;68.63;26.02;;;10.10;99.90;;;;;;5103122;28;21237;-74
2023/10/26 03:32:37;;;;;;;63.75;26.40;;;10.00;99.90;;;;;;5102829;28;20020;-73
2023/10/26 03:35:03;;;;;;;75.93;27.17;;;10.00;99.90;;;;;;5102907;28;20927;-73
2023/10/26 03:37:30;;;;;;;59.15;26.35;;;10.10;99.90;;;;;;5098850;28;20035;-73
2023/10/26 03:39:55;;;;;;;57.13;26.08;;;10.10;99.90;;;;;;5102587;28;20020;-75
2023/10/26 03:42:21;;;;;;;59.25;26.80;;;10.10;99.90;;;;;;5102637;28;20411;-74
2023/10/26 03:44:46;;;;;;;57.03;26.88;;;10.10;99.90;;;;;;5103009;28;20032;-74
2023/10/26 03:47:13;;;;;;;62.45;26.77;;;10.10;99.90;;;;;;5101099;28;20082;-74
2023/10/26 03:49:38;;;;;;;61.35;26.08;;;10.10;99.90;;;;;;5100326;28;20059;-73
2023/10/26 03:52:04;;;;;;;53.38;25.80;;;10.10;99.90;;;;;;5101698;28;20032;-73
2023/10/26 03:54:30;;;;;;;60.35;26.45;;;10.00;99.90;;;;;;5101760;28;20400;-75
2023/10/26 03:56:56;;;;;;;55.55;25.75;;;10.00;99.90;;;;;;5102501;28;20127;-74
2023/10/26 03:59:21;;;;;;;55.92;25.33;;;10.00;99.90;;;;;;5101424;28;20054;-75
2023/10/26 04:01:47;;;;;;;61.80;25.90;;;10.00;99.90;;;;;;5101140;28;20593;-75
2023/10/26 04:04:12;;;;;;;57.63;26.38;;;10.00;99.90;;;;;;5102641;28;20016;-75
2023/10/26 04:06:38;;;;;;;60.67;26.02;;;10.00;99.90;;;;;;5102866;28;20020;-74
2023/10/26 04:09:04;;;;;;;68.20;26.33;;;10.00;99.90;;;;;;5100925;28;20437;-74
2023/10/26 04:11:29;;;;;;;53.00;24.92;;;10.00;99.90;;;;;;5101732;28;20020;-74
2023/10/26 04:13:57;;;;;;;61.05;25.92;;;10.00;99.90;;;;;;5102639;28;20480;-74
2023/10/26 04:16:24;;;;;;;61.10;25.42;;;10.10;99.90;;;;;;5100724;28;20023;-73
2023/10/26 04:18:49;;;;;;;64.05;25.13;;;10.00;99.90;;;;;;5100763;28;20020;-74
2023/10/26 04:21:15;;;;;;;60.92;26.52;;;9.90;99.90;;;;;;5102457;28;20051;-74
2023/10/26 04:23:41;;;;;;;58.75;25.63;;;10.00;99.90;;;;;;5101594;28;20027;-75
2023/10/26 04:26:08;;;;;;;61.00;26.45;;;9.90;99.90;;;;;;5101116;28;20016;-75
2023/10/26 04:28:35;;;;;;;57.95;25.95;;;9.90;99.90;;;;;;5102854;28;20082;-74
2023/10/26 04:31:01;;;;;;;66.38;25.30;;;9.90;99.90;;;;;;5100984;28;20024;-76
2023/10/26 04:33:26;;;;;;;61.35;25.45;;;9.90;99.90;;;;;;5102905;28;20071;-73
2023/10/26 04:35:52;;;;;;;59.60;24.77;;;9.90;99.90;;;;;;5101253;28;20096;-74
2023/10/26 04:38:18;;;;;;;55.80;24.77;;;9.80;99.90;;;;;;5102969;28;20020;-74
2023/10/26 04:40:44;;;;;;;58.42;25.73;;;9.80;99.90;;;;;;5101140;28;20028;-74
2023/10/26 04:43:09;;;;;;;52.38;24.67;;;9.80;99.90;;;;;;5101878;28;20035;-74
2023/10/26 04:45:35;;;;;;;53.03;25.00;;;9.80;99.90;;;;;;5100842;28;20034;-75
2023/10/26 04:48:01;;;;;;;54.00;24.95;;;9.80;99.90;;;;;;5101920;28;20086;-74
2023/10/26 04:50:29;;;;;;;61.72;25.48;;;9.80;99.90;;;;;;5101740;28;20028;-74
2023/10/26 04:52:55;;;;;;;52.42;24.20;;;9.90;99.90;;;;;;5101956;28;20028;-73
2023/10/26 04:55:21;;;;;;;56.88;23.00;;;9.80;99.90;;;;;;5101205;28;20058;-74
2023/10/26 04:57:46;;;;;;;56.15;24.77;;;9.80;99.90;;;;;;5101502;28;20404;-73
2023/10/26 05:00:12;;;;;;;53.13;22.88;;;9.80;99.90;;;;;;5101722;28;20369;-73
2023/10/26 05:02:39;;;;;;;53.63;22.77;;;9.80;99.90;;;;;;5101641;28;20074;-73
2023/10/26 05:05:07;;;;;;;54.15;23.42;;;9.80;99.90;;;;;;5101136;28;20012;-75
2023/10/26 05:07:32;;;;;;;55.15;24.08;;;9.80;99.90;;;;;;5100970;28;20483;-74
2023/10/26 05:09:59;;;;;;;60.08;24.23;;;9.80;99.90;;;;;;5101400;28;20020;-74
2023/10/26 05:12:25;;;;;;;54.53;22.35;;;9.80;99.90;;;;;;5101617;28;20040;-72
2023/10/26 05:14:51;;;;;;;62.15;24.00;;;9.80;99.90;;;;;;5101641;28;20031;-74
2023/10/26 05:17:16;;;;;;;59.58;25.63;;;9.80;99.90;;;;;;5101432;28;20024;-74
2023/10/26 05:19:42;;;;;;;53.22;23.50;;;9.80;99.90;;;;;;5101332;28;20063;-74
2023/10/26 05:22:08;;;;;;;52.50;23.52;;;9.70;99.90;;;;;;5100822;28;20385;-75
2023/10/26 05:24:34;;;;;;;62.63;23.77;;;9.80;99.90;;;;;;5099907;28;20024;-75
2023/10/26 05:26:59;;;;;;;59.17;24.45;;;9.70;99.90;;;;;;5100796;28;20020;-74
2023/10/26 05:29:29;;;;;;;58.30;23.92;;;9.70;99.90;;;;;;5101753;28;20076;-74
2023/10/26 05:31:55;;;;;;;56.40;23.40;;;9.80;99.90;;;;;;5099870;28;20036;-74
2023/10/26 05:34:21;;;;;;;58.78;24.25;;;9.80;99.90;;;;;;5101809;28;20020;-73
2023/10/26 05:36:47;;;;;;;55.33;23.58;;;9.80;99.90;;;;;;5100580;28;20081;-73
2023/10/26 05:39:13;;;;;;;59.75;24.40;;;9.80;99.90;;;;;;5101159;28;20054;-72
2023/10/26 05:41:38;;;;;;;54.97;23.90;;;9.70;99.90;;;;;;5102059;28;20024;-72
2023/10/26 05:44:04;;;;;;;63.00;25.15;;;9.70;99.90;;;;;;5100578;28;20024;-71
2023/10/26 05:46:30;;;;;;;58.60;24.17;;;9.70;99.90;;;;;;5101713;28;20098;-70
2023/10/26 05:48:56;;;;;;;63.33;24.40;;;9.80;99.90;;;;;;5101259;28;20044;-71
2023/10/26 05:51:21;;;;;;;54.15;24.65;;;9.70;99.90;;;;;;5099043;28;20020;-72
2023/10/26 05:53:47;;;;;;;61.10;24.90;;;9.70;99.90;;;;;;5101308;28;20024;-70
2023/10/26 05:56:12;;;;;;;59.55;24.02;;;9.70;99.90;;;;;;5100801;28;20123;-71
2023/10/26 05:58:39;;;;;;;61.10;24.70;;;9.80;99.90;;;;;;5101004;28;20024;-71
2023/10/26 06:01:05;;;;;;;56.92;24.27;;;9.70;99.90;;;;;;5097706;28;20089;-72
2023/10/26 06:03:31;;;;;;;61.10;24.50;;;9.70;99.90;;;;;;5100198;28;20058;-72
2023/10/26 06:05:58;;;;;;;56.25;24.05;;;9.70;99.90;;;;;;5099776;28;20042;-72
2023/10/26 06:08:24;;;;;;;57.88;25.33;;;9.80;99.90;;;;;;5101154;28;20036;-73
2023/10/26 06:10:50;;;;;;;60.58;24.08;;;9.70;99.90;;;;;;5101024;28;20046;-75
2023/10/26 06:13:15;;;;;;;64.95;24.48;;;9.80;99.90;;;;;;5100662;28;20024;-73
2023/10/26 06:15:41;;;;;;;60.08;24.15;;;9.70;99.90;;;;;;5100653;28;20031;-73
2023/10/26 06:18:06;;;;;;;52.72;23.92;;;9.70;99.90;;;;;;5102147;28;20418;-73
2023/10/26 06:20:35;;;;;;;69.78;25.55;;;9.70;99.90;;;;;;5104920;28;20489;-74
2023/10/26 06:23:00;;;;;;;63.42;25.70;;;9.70;99.90;;;;;;5105361;28;20366;-73
2023/10/26 06:25:28;;;;;;;57.80;25.05;;;9.70;99.90;;;;;;5105595;28;20112;-73
2023/10/26 06:27:53;;;;;;;65.93;25.77;;;9.70;99.90;;;;;;5104464;28;20091;-72
2023/10/26 06:30:19;;;;;;;66.95;26.52;;;9.80;99.90;;;;;;5105174;28;20059;-72
2023/10/26 06:32:45;;;;;;;68.70;25.83;;;9.70;99.90;;;;;;5104140;28;20523;-71
2023/10/26 06:35:11;;;;;;;65.82;27.08;;;9.70;99.90;;;;;;5104523;28;20035;-71
2023/10/26 06:37:37;;;;;;;61.58;26.02;;;9.70;99.90;;;;;;5104533;28;20437;-73
2023/10/26 06:40:05;;;;;;;64.47;26.38;;;9.70;99.90;;;;;;5105233;28;20077;-72
2023/10/26 06:42:31;;;;;;;64.30;26.92;;;9.70;99.90;;;;;;5103610;28;20020;-72
2023/10/26 06:44:56;;;;;;;67.07;27.17;;;9.70;99.90;;;;;;5103752;28;20024;-73
2023/10/26 06:47:22;;;;;;;68.63;26.23;;;9.80;99.90;;;;;;5105285;28;20031;-72
2023/10/26 06:49:47;;;;;;;66.07;27.17;;;9.70;99.90;;;;;;5104806;28;20024;-73
2023/10/26 06:52:13;;;;;;;65.30;26.45;;;9.70;99.90;;;;;;5104699;28;20042;-73
2023/10/26 06:54:38;;;;;;;72.47;27.63;;;9.70;99.90;;;;;;5104542;28;20068;-73
2023/10/26 06:57:04;;;;;;;62.03;26.95;;;9.80;99.90;;;;;;5103648;28;20044;-73
2023/10/26 06:59:30;;;;;;;68.85;26.55;;;9.80;99.90;;;;;;5103180;28;20028;-73
2023/10/26 07:01:56;;;;;;;69.82;26.27;;;9.80;99.90;;;;;;5103770;28;20114;-71
2023/10/26 07:04:22;;;;;;;74.55;26.55;;;9.80;99.90;;;;;;5103933;28;20028;-70
2023/10/26 07:06:48;;;;;;;65.25;26.10;;;9.80;99.90;;;;;;5104318;28;20020;-73
2023/10/26 07:09:17;;;;;;;73.75;27.60;;;9.80;99.90;;;;;;5103734;28;20095;-73
2023/10/26 07:11:42;;;;;;;66.25;26.50;;;9.90;99.90;;;;;;5103557;28;20045;-71
2023/10/26 07:14:08;;;;;;;74.80;25.95;;;9.80;99.90;;;;;;5104257;28;20048;-71
2023/10/26 07:16:34;;;;;;;73.35;27.80;;;9.90;99.90;;;;;;5103058;28;20028;-74
2023/10/26 07:19:00;;;;;;;71.85;26.83;;;9.90;99.90;;;;;;5102918;28;20042;-73
2023/10/26 07:21:27;;;;;;;71.32;27.30;;;9.90;99.90;;;;;;5103906;28;20706;-73
2023/10/26 07:23:53;;;;;;;64.25;26.95;;;9.90;99.90;;;;;;5102026;28;20028;-72
2023/10/26 07:26:19;;;;;;;73.25;27.38;;;10.00;99.90;;;;;;5102228;28;20028;-72
2023/10/26 07:28:45;;;;;;;65.43;27.08;;;10.00;99.90;;;;;;5101508;28;20039;-74
2023/10/26 07:31:20;;;;;;;70.60;30.30;;;10.00;99.90;;;;;;5102082;28;20031;-75
2023/10/26 07:33:47;;;;;;;71.35;29.85;;;10.00;99.90;;;;;;5103136;28;20027;-73
2023/10/26 07:36:13;;;;;;;82.00;31.23;;;10.00;99.90;;;;;;5101038;28;20085;-74
2023/10/26 07:38:40;;;;;;;78.43;30.23;;;10.00;99.90;;;;;;5101869;28;20028;-75
2023/10/26 07:41:07;;;;;;;78.65;32.17;;;10.10;99.90;;;;;;5103585;28;20049;-74
2023/10/26 07:43:33;;;;;;;80.20;31.15;;;10.10;99.90;;;;;;5104036;28;20020;-75
2023/10/26 07:45:59;;;;;;;75.00;29.73;;;10.10;99.90;;;;;;5103508;28;20020;-74
2023/10/26 07:48:24;;;;;;;91.20;32.78;;;10.10;99.90;;;;;;5101541;28;20104;-74
2023/10/26 07:50:51;;;;;;;73.43;30.10;;;10.20;99.90;;;;;;5102718;28;20016;-76
2023/10/26 07:53:16;;;;;;;83.47;29.85;;;10.20;99.90;;;;;;5102744;28;20024;-75
2023/10/26 07:55:44;;;;;;;73.95;28.75;;;10.10;99.90;;;;;;5102682;28;20266;-75
2023/10/26 07:58:09;;;;;;;84.68;30.52;;;10.20;99.90;;;;;;5102147;28;20020;-75
2023/10/26 08:00:38;;;;;;;65.82;28.30;;;10.20;99.90;;;;;;5101238;28;20091;-74
2023/10/26 08:03:04;;;;;;;75.88;27.50;;;10.30;99.90;;;;;;5100265;28;20031;-72
2023/10/26 08:05:30;;;;;;;79.00;30.83;;;10.30;99.90;;;;;;5101221;28;20460;-73
2023/10/26 08:07:56;;;;;;;78.38;30.02;;;10.40;99.90;;;;;;5101225;28;20046;-74
2023/10/26 08:10:23;;;;;;;72.43;29.05;;;10.40;99.90;;;;;;5102423;28;20027;-73
2023/10/26 08:12:52;;;;;;;69.43;28.25;;;10.50;99.90;;;;;;5102179;28;20661;-74
2023/10/26 08:15:18;;;;;;;80.57;29.63;;;10.60;99.90;;;;;;5100513;28;20036;-73
2023/10/26 08:17:43;;;;;;;76.38;28.13;;;10.60;99.90;;;;;;5101644;28;20053;-72
2023/10/26 08:20:10;;;;;;;79.00;29.10;;;10.60;99.90;;;;;;5102666;28;20020;-74
2023/10/26 08:22:36;;;;;;;73.15;28.23;;;10.60;99.90;;;;;;5100263;28;20024;-72
2023/10/26 08:25:05;;;;;;;61.72;26.23;;;10.70;99.90;;;;;;5102803;28;20124;-74
2023/10/26 08:27:31;;;;;;;70.88;28.88;;;10.70;99.90;;;;;;5101050;28;20032;-72
2023/10/26 08:29:57;;;;;;;80.25;28.30;;;10.70;99.90;;;;;;5100686;28;20032;-74
2023/10/26 08:32:23;;;;;;;70.35;28.20;;;10.80;99.90;;;;;;5101443;28;20131;-76
2023/10/26 08:34:48;;;;;;;60.35;26.30;;;10.80;99.90;;;;;;5101904;28;20019;-74
2023/10/26 08:37:14;;;;;;;64.25;27.30;;;10.90;99.90;;;;;;5100786;28;20397;-74
2023/10/26 08:39:40;;;;;;;66.07;27.40;;;10.90;99.90;;;;;;5102379;28;20020;-75
2023/10/26 08:42:06;;;;;;;67.45;26.85;;;10.90;99.90;;;;;;5101684;28;20027;-72
2023/10/26 08:44:33;;;;;;;65.68;27.60;;;10.90;99.90;;;;;;5100951;28;20028;-74
2023/10/26 08:47:05;;;;;;;66.57;26.65;;;11.00;99.90;;;;;;5099824;28;20028;-74
2023/10/26 08:49:32;;;;;;;67.38;26.50;;;11.00;99.90;;;;;;5099259;28;20495;-75
2023/10/26 08:51:59;;;;;;;66.85;26.13;;;10.90;99.90;;;;;;5100004;28;20756;-73
2023/10/26 08:54:26;;;;;;;66.95;26.83;;;10.90;99.90;;;;;;5102369;28;20024;-75
2023/10/26 08:56:52;;;;;;;58.42;26.48;;;10.90;99.90;;;;;;5101607;28;20515;-75
2023/10/26 08:59:18;;;;;;;58.67;25.95;;;10.90;99.90;;;;;;5101733;28;20038;-74
2023/10/26 09:01:46;;;;;;;56.63;25.25;;;10.90;99.90;;;;;;5100096;28;20028;-73
2023/10/26 09:04:12;;;;;;;68.30;26.45;;;11.00;99.90;;;;;;5100821;28;20028;-75
2023/10/26 09:06:49;;;;;;;64.50;26.80;;;10.90;99.90;;;;;;5102101;28;20020;-75
2023/10/26 09:09:15;;;;;;;54.17;23.85;;;11.00;99.90;;;;;;5101347;28;20028;-74
2023/10/26 09:11:42;;;;;;;68.03;25.20;;;11.00;99.90;;;;;;5100383;28;20016;-74
2023/10/26 09:14:22;;;;;;;60.33;24.95;;;11.00;99.90;;;;;;5100771;28;20069;-76
2023/10/26 09:16:48;;;;;;;59.75;25.63;;;11.10;99.90;;;;;;5100163;28;20028;-75
2023/10/26 09:19:16;;;;;;;63.35;24.17;;;11.10;99.90;;;;;;5099774;28;20465;-75
2023/10/26 09:21:56;;;;;;;58.25;25.10;;;11.10;99.90;;;;;;5101875;28;20036;-74
2023/10/26 09:24:31;;;;;;;57.50;25.92;;;11.10;99.90;;;;;;5100056;28;20034;-76
2023/10/26 09:27:01;;;;;;;53.00;23.50;;;11.10;99.90;;;;;;5099118;28;20015;-76
2023/10/26 09:29:41;;;;;;;57.28;23.95;;;11.10;99.90;;;;;;5099573;28;20059;-74
2023/10/26 09:32:08;;;;;;;59.88;24.88;;;11.20;99.90;;;;;;5099522;28;20028;-75
2023/10/26 09:34:42;;;;;;;53.25;23.35;;;11.20;99.90;;;;;;5098797;28;20020;-76
2023/10/26 09:37:09;;;;;;;55.00;24.08;;;11.20;99.90;;;;;;5099557;28;20047;-75
2023/10/26 09:39:38;;;;;;;54.47;23.70;;;11.20;99.90;;;;;;5101138;28;20024;-74
2023/10/26 09:42:11;;;;;;;56.55;23.92;;;11.20;99.90;;;;;;5101687;28;20043;-76
2023/10/26 09:44:37;;;;;;;53.78;25.30;;;11.20;99.90;;;;;;5099698;28;20040;-75
2023/10/26 09:47:03;;;;;;;57.13;23.75;;;11.30;99.90;;;;;;5100571;28;20111;-77
2023/10/26 09:49:30;;;;;;;51.00;24.45;;;11.30;99.90;;;;;;5101056;28;20084;-74
2023/10/26 09:51:58;;;;;;;52.22;24.65;;;11.30;99.90;;;;;;5101615;28;20030;-76
2023/10/26 09:54:31;;;;;;;48.97;23.92;;;11.30;99.90;;;;;;5102245;28;20058;-78
2023/10/26 09:57:04;;;;;;;54.05;23.95;;;11.30;99.90;;;;;;5105286;28;20102;-76
2023/10/26 09:59:31;;;;;;;52.87;23.77;;;11.30;99.90;;;;;;5105467;28;20082;-75
2023/10/26 10:01:57;;;;;;;54.65;23.67;;;11.40;99.90;;;;;;5104935;28;20058;-76
2023/10/26 10:04:39;;;;;;;51.10;24.40;;;11.40;99.90;;;;;;5103824;28;20027;-77
2023/10/26 10:07:12;;;;;;;48.13;23.80;;;11.50;99.90;;;;;;5103407;28;20074;-76
2023/10/26 10:10:10;;;;;;;52.35;22.45;;;11.40;99.90;;;;;;5103335;28;20050;-77
2023/10/26 10:12:38;;;;;;;45.50;22.67;;;11.40;99.90;;;;;;5103278;28;20027;-76
2023/10/26 10:15:11;;;;;;;49.63;23.42;;;11.50;99.90;;;;;;5102266;28;20046;-77
2023/10/26 10:17:46;;;;;;;42.87;21.80;;;11.50;99.90;;;;;;5103948;28;20028;-79
2023/10/26 10:20:17;;;;;;;48.25;22.33;;;11.50;99.90;;;;;;5102703;28;20024;-77
2023/10/26 10:22:50;;;;;;;47.47;23.20;;;11.60;99.90;;;;;;5103858;28;20085;-78
2023/10/26 10:25:23;;;;;;;42.88;21.85;;;11.60;99.90;;;;;;5103125;28;20024;-78
2023/10/26 10:27:49;;;;;;;40.58;20.35;;;11.60;99.90;;;;;;5103136;28;20078;-77
2023/10/26 10:30:21;;;;;;;38.03;19.63;;;11.80;99.90;;;;;;5103026;28;20028;-77
2023/10/26 10:32:47;;;;;;;35.33;18.95;;;11.60;99.90;;;;;;5104915;28;20356;-79
2023/10/26 10:35:21;;;;;;;39.08;19.38;;;11.70;99.90;;;;;;5102854;28;20176;-79
2023/10/26 10:40:22;;;;;;;36.53;18.92;;;11.70;99.90;;;;;;4888856;22;20672;-77
2023/10/26 10:42:51;;;;;;;40.65;19.45;;;11.70;99.90;;;;;;5050424;28;20053;-75
2023/10/26 10:45:18;;;;;;;38.15;20.02;;;11.70;99.90;;;;;;5053055;28;20025;-74
2023/10/26 10:47:45;;;;;;;40.15;19.42;;;11.70;99.90;;;;;;5052153;28;20061;-74
2023/10/26 10:50:14;;;;;;;40.53;20.00;;;11.70;99.90;;;;;;5051867;28;20042;-74
2023/10/26 10:52:42;;;;;;;39.35;19.67;;;11.70;99.90;;;;;;5051975;28;20026;-76
2023/10/26 10:55:08;;;;;;;43.03;19.92;;;11.70;99.90;;;;;;5051410;28;20698;-73
2023/10/26 10:57:34;;;;;;;38.38;18.13;;;11.70;99.90;;;;;;5052406;28;20445;-74
2023/10/26 10:59:59;;;;;;;41.85;18.67;;;11.70;99.90;;;;;;5050530;28;20055;-76
2023/10/26 11:02:25;;;;;;;37.03;18.60;;;11.70;99.90;;;;;;5052773;28;20029;-74
2023/10/26 11:04:55;;;;;;;39.55;19.85;;;11.70;99.90;;;;;;5051573;28;20018;-77
2023/10/26 11:07:28;;;;;;;41.25;19.80;;;11.70;99.90;;;;;;5053055;28;20060;-78
2023/10/26 11:09:56;;;;;;;38.57;18.93;;;11.70;99.90;;;;;;5052440;28;20033;-76
2023/10/26 11:12:22;;;;;;;39.25;19.77;;;11.70;99.90;;;;;;5052266;28;20028;-77
2023/10/26 11:14:49;;;;;;;40.90;19.45;;;11.80;99.90;;;;;;5052720;28;20049;-75
2023/10/26 11:17:17;;;;;;;37.95;18.67;;;11.80;99.90;;;;;;5052426;28;20412;-77
2023/10/26 11:19:43;;;;;;;40.42;19.13;;;11.80;99.90;;;;;;5053098;28;20021;-78
2023/10/26 11:22:08;;;;;;;39.00;19.80;;;11.80;99.90;;;;;;5053398;28;20029;-76
2023/10/26 11:24:35;;;;;;;36.35;18.75;;;11.80;99.90;;;;;;5051620;28;20030;-77
2023/10/26 11:27:12;;;;;;;40.35;19.48;;;11.80;99.90;;;;;;5051945;28;20030;-75
2023/10/26 11:29:40;;;;;;;34.35;18.48;;;11.90;99.90;;;;;;5059014;28;20438;-76
2023/10/26 11:32:26;;;;;;;35.78;17.80;;;11.90;99.90;;;;;;5052063;28;20121;-75
2023/10/26 11:35:22;;;;;;;38.92;19.30;;;12.00;99.90;;;;;;5050704;28;20029;-76
2023/10/26 11:37:52;;;;;;;40.03;19.00;;;12.10;99.90;;;;;;5042899;28;20064;-76
2023/10/26 11:40:18;;;;;;;40.80;20.02;;;12.00;99.90;;;;;;5043779;28;20084;-78
2023/10/26 11:42:53;;;;;;;36.95;18.92;;;12.10;99.90;;;;;;5043257;28;20022;-76
2023/10/26 11:45:26;;;;;;;38.17;19.35;;;12.10;99.90;;;;;;5042877;28;20029;-76
2023/10/26 11:47:54;;;;;;;41.35;19.95;;;12.10;99.90;;;;;;5041716;28;20084;-77
2023/10/26 11:50:36;;;;;;;36.65;18.45;;;12.10;99.90;;;;;;5041261;28;20021;-77
2023/10/26 11:53:03;;;;;;;41.38;20.55;;;12.10;99.90;;;;;;5041796;28;20082;-76
2023/10/26 11:55:31;;;;;;;39.00;20.63;;;12.10;99.90;;;;;;5040489;28;20063;-76
2023/10/26 11:57:58;;;;;;;42.00;19.73;;;12.10;99.90;;;;;;5040187;28;20029;-77
2023/10/26 12:00:25;;;;;;;39.08;19.58;;;12.10;99.90;;;;;;5041999;28;20029;-77
2023/10/26 12:02:57;;;;;;;38.72;19.35;;;12.20;99.90;;;;;;5041315;28;20021;-76
2023/10/26 12:05:23;;;;;;;38.70;18.80;;;12.10;99.90;;;;;;5036709;28;20124;-76
2023/10/26 12:07:49;;;;;;;43.97;19.45;;;12.20;99.90;;;;;;5039513;28;20072;-77
2023/10/26 12:10:17;;;;;;;41.03;19.95;;;12.20;99.90;;;;;;5041475;28;20029;-78
2023/10/26 12:12:48;;;;;;;36.90;19.63;;;12.20;99.90;;;;;;5041065;28;20029;-77
2023/10/26 12:15:14;;;;;;;34.92;17.52;;;12.30;99.90;;;;;;5039443;28;20034;-77
2023/10/26 12:17:40;;;;;;;33.25;18.35;;;12.20;99.90;;;;;;5040606;28;20025;-79
2023/10/26 12:20:08;;;;;;;37.38;18.10;;;12.20;99.90;;;;;;5040474;28;20041;-77
2023/10/26 12:22:33;;;;;;;33.58;17.88;;;12.30;99.90;;;;;;5041046;28;20026;-76
2023/10/26 12:24:59;;;;;;;34.63;17.67;;;12.20;99.90;;;;;;5040433;28;20418;-76
2023/10/26 12:27:25;;;;;;;37.95;18.20;;;12.30;99.90;;;;;;5041545;28;20056;-78
2023/10/26 12:29:50;;;;;;;45.70;20.95;;;12.40;99.90;;;;;;5039480;28;20025;-74